sensor_id;sensor_type;location;lat;lon;timestamp;P1;durP1;ratioP1;P2;durP2;ratioP2
70800;SDS011;59616;52.170;5.386;2023-04-01T00:01:05;17.27;;;4.95;;
70800;SDS011;59616;52.170;5.386;2023-04-01T00:03:33;16.88;;;4.88;;
70800;SDS011;59616;52.170;5.386;2023-04-01T00:06:01;17.60;;;5.10;;
70800;SDS011;59616;52.170;5.386;2023-04-01T00:08:29;17.13;;;5.38;;
70800;SDS011;59616;52.170;5.386;2023-04-01T00:10:56;19.55;;;5.43;;
70800;SDS011;59616;52.170;5.386;2023-04-01T00:13:24;16.95;;;5.47;;
70800;SDS011;59616;52.170;5.386;2023-04-01T00:15:52;15.10;;;5.38;;
70800;SDS011;59616;52.170;5.386;2023-04-01T00:18:20;18.92;;;5.95;;
70800;SDS011;59616;52.170;5.386;2023-04-01T00:20:48;16.73;;;5.47;;
70800;SDS011;59616;52.170;5.386;2023-04-01T00:23:16;21.63;;;6.22;;
70800;SDS011;59616;52.170;5.386;2023-04-01T00:25:44;19.80;;;6.00;;
70800;SDS011;59616;52.170;5.386;2023-04-01T00:28:11;17.00;;;6.03;;
70800;SDS011;59616;52.170;5.386;2023-04-01T00:30:39;19.33;;;6.28;;
70800;SDS011;59616;52.170;5.386;2023-04-01T00:33:06;19.52;;;6.03;;
70800;SDS011;59616;52.170;5.386;2023-04-01T00:35:34;20.67;;;6.82;;
70800;SDS011;59616;52.170;5.386;2023-04-01T00:38:01;19.60;;;5.68;;
70800;SDS011;59616;52.170;5.386;2023-04-01T00:40:36;17.02;;;5.22;;
70800;SDS011;59616;52.170;5.386;2023-04-01T00:43:05;13.88;;;4.47;;
70800;SDS011;59616;52.170;5.386;2023-04-01T00:45:37;21.60;;;5.38;;
70800;SDS011;59616;52.170;5.386;2023-04-01T00:48:07;17.30;;;4.97;;
70800;SDS011;59616;52.170;5.386;2023-04-01T00:50:36;14.63;;;4.55;;
70800;SDS011;59616;52.170;5.386;2023-04-01T00:53:04;13.75;;;4.70;;
70800;SDS011;59616;52.170;5.386;2023-04-01T00:55:33;13.65;;;4.68;;
70800;SDS011;59616;52.170;5.386;2023-04-01T00:58:03;15.73;;;4.72;;
70800;SDS011;59616;52.170;5.386;2023-04-01T01:00:32;17.02;;;5.65;;
70800;SDS011;59616;52.170;5.386;2023-04-01T01:02:59;20.25;;;6.05;;
70800;SDS011;59616;52.170;5.386;2023-04-01T01:05:32;23.67;;;7.72;;
70800;SDS011;59616;52.170;5.386;2023-04-01T01:08:33;14.27;;;4.57;;
70800;SDS011;59616;52.170;5.386;2023-04-01T01:11:06;16.90;;;5.47;;
70800;SDS011;59616;52.170;5.386;2023-04-01T01:13:36;17.65;;;5.13;;
70800;SDS011;59616;52.170;5.386;2023-04-01T01:16:07;19.50;;;5.43;;
70800;SDS011;59616;52.170;5.386;2023-04-01T01:18:39;20.20;;;5.07;;
70800;SDS011;59616;52.170;5.386;2023-04-01T01:29:01;19.30;;;5.78;;
70800;SDS011;59616;52.170;5.386;2023-04-01T01:34:06;15.70;;;5.10;;
70800;SDS011;59616;52.170;5.386;2023-04-01T01:36:37;16.23;;;4.35;;
70800;SDS011;59616;52.170;5.386;2023-04-01T01:39:07;11.98;;;3.38;;
70800;SDS011;59616;52.170;5.386;2023-04-01T01:41:36;9.48;;;3.40;;
70800;SDS011;59616;52.170;5.386;2023-04-01T01:44:07;10.35;;;2.97;;
70800;SDS011;59616;52.170;5.386;2023-04-01T01:46:35;10.10;;;3.08;;
70800;SDS011;59616;52.170;5.386;2023-04-01T01:49:03;10.45;;;3.30;;
70800;SDS011;59616;52.170;5.386;2023-04-01T01:51:32;9.00;;;3.05;;
70800;SDS011;59616;52.170;5.386;2023-04-01T01:54:01;8.40;;;2.95;;
70800;SDS011;59616;52.170;5.386;2023-04-01T01:56:29;8.95;;;2.83;;
70800;SDS011;59616;52.170;5.386;2023-04-01T01:59:02;9.85;;;2.78;;
70800;SDS011;59616;52.170;5.386;2023-04-01T02:01:31;7.82;;;2.65;;
70800;SDS011;59616;52.170;5.386;2023-04-01T02:04:07;7.35;;;2.28;;
70800;SDS011;59616;52.170;5.386;2023-04-01T02:06:37;10.00;;;2.72;;
70800;SDS011;59616;52.170;5.386;2023-04-01T02:09:06;8.32;;;2.35;;
70800;SDS011;59616;52.170;5.386;2023-04-01T02:11:38;9.75;;;2.55;;
70800;SDS011;59616;52.170;5.386;2023-04-01T02:14:08;7.50;;;2.30;;
70800;SDS011;59616;52.170;5.386;2023-04-01T02:16:56;8.88;;;2.40;;
70800;SDS011;59616;52.170;5.386;2023-04-01T02:19:25;5.30;;;1.83;;
70800;SDS011;59616;52.170;5.386;2023-04-01T02:21:55;6.35;;;2.50;;
70800;SDS011;59616;52.170;5.386;2023-04-01T02:24:23;6.18;;;2.47;;
70800;SDS011;59616;52.170;5.386;2023-04-01T02:26:51;9.90;;;2.55;;
70800;SDS011;59616;52.170;5.386;2023-04-01T02:29:19;9.77;;;2.17;;
70800;SDS011;59616;52.170;5.386;2023-04-01T02:31:47;8.23;;;2.30;;
70800;SDS011;59616;52.170;5.386;2023-04-01T02:34:16;8.80;;;2.65;;
70800;SDS011;59616;52.170;5.386;2023-04-01T02:36:43;8.32;;;2.72;;
70800;SDS011;59616;52.170;5.386;2023-04-01T02:39:11;7.15;;;2.20;;
70800;SDS011;59616;52.170;5.386;2023-04-01T02:41:38;7.95;;;2.28;;
70800;SDS011;59616;52.170;5.386;2023-04-01T02:44:06;10.30;;;2.65;;
70800;SDS011;59616;52.170;5.386;2023-04-01T02:46:34;6.75;;;2.40;;
70800;SDS011;59616;52.170;5.386;2023-04-01T02:49:01;9.73;;;2.50;;
70800;SDS011;59616;52.170;5.386;2023-04-01T02:51:29;8.05;;;2.47;;
70800;SDS011;59616;52.170;5.386;2023-04-01T02:53:58;5.85;;;2.13;;
70800;SDS011;59616;52.170;5.386;2023-04-01T02:56:25;9.30;;;2.65;;
70800;SDS011;59616;52.170;5.386;2023-04-01T02:58:53;6.93;;;2.45;;
70800;SDS011;59616;52.170;5.386;2023-04-01T03:01:21;5.05;;;1.73;;
70800;SDS011;59616;52.170;5.386;2023-04-01T03:03:48;5.75;;;1.77;;
70800;SDS011;59616;52.170;5.386;2023-04-01T03:06:16;7.07;;;2.17;;
70800;SDS011;59616;52.170;5.386;2023-04-01T03:08:44;6.07;;;1.80;;
70800;SDS011;59616;52.170;5.386;2023-04-01T03:11:11;8.43;;;2.17;;
70800;SDS011;59616;52.170;5.386;2023-04-01T03:13:38;5.70;;;1.80;;
70800;SDS011;59616;52.170;5.386;2023-04-01T03:16:06;5.93;;;1.90;;
70800;SDS011;59616;52.170;5.386;2023-04-01T03:18:34;5.35;;;1.80;;
70800;SDS011;59616;52.170;5.386;2023-04-01T03:21:14;6.75;;;1.80;;
70800;SDS011;59616;52.170;5.386;2023-04-01T03:23:42;6.72;;;2.03;;
70800;SDS011;59616;52.170;5.386;2023-04-01T03:26:09;7.32;;;2.30;;
70800;SDS011;59616;52.170;5.386;2023-04-01T03:28:36;8.95;;;2.65;;
70800;SDS011;59616;52.170;5.386;2023-04-01T03:31:04;8.27;;;2.42;;
70800;SDS011;59616;52.170;5.386;2023-04-01T03:33:38;8.25;;;2.88;;
70800;SDS011;59616;52.170;5.386;2023-04-01T03:36:06;7.97;;;3.10;;
70800;SDS011;59616;52.170;5.386;2023-04-01T03:38:33;9.38;;;4.10;;
70800;SDS011;59616;52.170;5.386;2023-04-01T03:41:01;10.40;;;3.65;;
70800;SDS011;59616;52.170;5.386;2023-04-01T03:43:29;12.15;;;4.43;;
70800;SDS011;59616;52.170;5.386;2023-04-01T03:45:56;13.55;;;4.80;;
70800;SDS011;59616;52.170;5.386;2023-04-01T03:48:24;11.85;;;5.15;;
70800;SDS011;59616;52.170;5.386;2023-04-01T03:50:52;16.63;;;5.80;;
70800;SDS011;59616;52.170;5.386;2023-04-01T03:53:19;15.75;;;6.05;;
70800;SDS011;59616;52.170;5.386;2023-04-01T03:55:47;17.58;;;6.53;;
70800;SDS011;59616;52.170;5.386;2023-04-01T03:58:14;17.48;;;6.53;;
70800;SDS011;59616;52.170;5.386;2023-04-01T04:00:43;17.35;;;6.80;;
70800;SDS011;59616;52.170;5.386;2023-04-01T04:03:10;16.73;;;5.88;;
70800;SDS011;59616;52.170;5.386;2023-04-01T04:05:40;16.27;;;6.43;;
70800;SDS011;59616;52.170;5.386;2023-04-01T04:08:12;18.05;;;6.47;;
70800;SDS011;59616;52.170;5.386;2023-04-01T04:10:40;19.30;;;6.28;;
70800;SDS011;59616;52.170;5.386;2023-04-01T04:13:07;15.45;;;6.07;;
70800;SDS011;59616;52.170;5.386;2023-04-01T04:15:39;16.58;;;5.15;;
70800;SDS011;59616;52.170;5.386;2023-04-01T04:18:06;14.57;;;5.30;;
70800;SDS011;59616;52.170;5.386;2023-04-01T04:20:33;12.93;;;5.40;;
70800;SDS011;59616;52.170;5.386;2023-04-01T04:23:01;14.68;;;4.90;;
70800;SDS011;59616;52.170;5.386;2023-04-01T04:25:28;15.35;;;5.30;;
70800;SDS011;59616;52.170;5.386;2023-04-01T04:27:56;12.43;;;4.38;;
70800;SDS011;59616;52.170;5.386;2023-04-01T04:30:23;14.60;;;4.95;;
70800;SDS011;59616;52.170;5.386;2023-04-01T04:32:50;12.45;;;4.68;;
70800;SDS011;59616;52.170;5.386;2023-04-01T04:35:17;14.07;;;5.10;;
70800;SDS011;59616;52.170;5.386;2023-04-01T04:37:45;14.80;;;4.65;;
70800;SDS011;59616;52.170;5.386;2023-04-01T04:40:12;14.02;;;4.80;;
70800;SDS011;59616;52.170;5.386;2023-04-01T04:42:40;14.63;;;4.50;;
70800;SDS011;59616;52.170;5.386;2023-04-01T04:45:11;12.30;;;4.05;;
70800;SDS011;59616;52.170;5.386;2023-04-01T04:47:44;12.32;;;4.15;;
70800;SDS011;59616;52.170;5.386;2023-04-01T04:50:11;12.55;;;3.92;;
70800;SDS011;59616;52.170;5.386;2023-04-01T04:52:39;11.05;;;2.85;;
70800;SDS011;59616;52.170;5.386;2023-04-01T04:55:06;10.52;;;3.40;;
70800;SDS011;59616;52.170;5.386;2023-04-01T04:57:34;10.40;;;2.88;;
70800;SDS011;59616;52.170;5.386;2023-04-01T05:00:01;10.02;;;2.80;;
70800;SDS011;59616;52.170;5.386;2023-04-01T05:02:41;10.25;;;2.83;;
70800;SDS011;59616;52.170;5.386;2023-04-01T05:05:09;11.38;;;3.28;;
70800;SDS011;59616;52.170;5.386;2023-04-01T05:07:36;10.27;;;3.25;;
70800;SDS011;59616;52.170;5.386;2023-04-01T05:10:04;12.05;;;3.60;;
70800;SDS011;59616;52.170;5.386;2023-04-01T05:12:32;11.07;;;3.33;;
70800;SDS011;59616;52.170;5.386;2023-04-01T05:15:04;15.15;;;3.90;;
70800;SDS011;59616;52.170;5.386;2023-04-01T05:17:31;13.48;;;3.92;;
70800;SDS011;59616;52.170;5.386;2023-04-01T05:19:58;12.00;;;4.00;;
70800;SDS011;59616;52.170;5.386;2023-04-01T05:22:27;13.10;;;3.97;;
70800;SDS011;59616;52.170;5.386;2023-04-01T05:24:54;12.57;;;4.20;;
70800;SDS011;59616;52.170;5.386;2023-04-01T05:27:22;12.82;;;4.10;;
70800;SDS011;59616;52.170;5.386;2023-04-01T05:29:49;12.70;;;3.88;;
70800;SDS011;59616;52.170;5.386;2023-04-01T05:32:36;12.27;;;4.13;;
70800;SDS011;59616;52.170;5.386;2023-04-01T05:35:04;11.70;;;3.70;;
70800;SDS011;59616;52.170;5.386;2023-04-01T05:37:32;10.57;;;3.42;;
70800;SDS011;59616;52.170;5.386;2023-04-01T05:40:01;12.95;;;3.70;;
70800;SDS011;59616;52.170;5.386;2023-04-01T05:42:29;10.52;;;3.15;;
70800;SDS011;59616;52.170;5.386;2023-04-01T05:44:56;9.65;;;3.25;;
70800;SDS011;59616;52.170;5.386;2023-04-01T05:47:41;8.52;;;2.88;;
70800;SDS011;59616;52.170;5.386;2023-04-01T05:50:09;10.15;;;2.85;;
70800;SDS011;59616;52.170;5.386;2023-04-01T05:52:37;8.98;;;2.67;;
70800;SDS011;59616;52.170;5.386;2023-04-01T05:55:05;7.88;;;2.53;;
70800;SDS011;59616;52.170;5.386;2023-04-01T05:57:32;10.13;;;2.63;;
70800;SDS011;59616;52.170;5.386;2023-04-01T05:59:59;10.20;;;3.13;;
70800;SDS011;59616;52.170;5.386;2023-04-01T06:02:37;10.15;;;2.70;;
70800;SDS011;59616;52.170;5.386;2023-04-01T06:05:26;9.88;;;2.90;;
70800;SDS011;59616;52.170;5.386;2023-04-01T06:08:06;8.43;;;2.45;;
70800;SDS011;59616;52.170;5.386;2023-04-01T06:13:12;10.93;;;2.88;;
70800;SDS011;59616;52.170;5.386;2023-04-01T06:18:25;8.55;;;2.42;;
70800;SDS011;59616;52.170;5.386;2023-04-01T06:25:53;10.38;;;3.38;;
70800;SDS011;59616;52.170;5.386;2023-04-01T06:28:29;9.73;;;3.03;;
70800;SDS011;59616;52.170;5.386;2023-04-01T06:31:16;9.73;;;3.03;;
70800;SDS011;59616;52.170;5.386;2023-04-01T06:34:00;10.52;;;2.90;;
70800;SDS011;59616;52.170;5.386;2023-04-01T06:36:38;9.88;;;3.25;;
70800;SDS011;59616;52.170;5.386;2023-04-01T06:48:05;7.95;;;2.25;;
70800;SDS011;59616;52.170;5.386;2023-04-01T06:54:04;7.40;;;2.30;;
70800;SDS011;59616;52.170;5.386;2023-04-01T06:56:53;8.10;;;2.50;;
70800;SDS011;59616;52.170;5.386;2023-04-01T06:59:28;7.25;;;1.90;;
70800;SDS011;59616;52.170;5.386;2023-04-01T07:04:30;8.38;;;2.42;;
70800;SDS011;59616;52.170;5.386;2023-04-01T07:06:59;5.88;;;1.90;;
70800;SDS011;59616;52.170;5.386;2023-04-01T07:09:32;6.68;;;1.95;;
70800;SDS011;59616;52.170;5.386;2023-04-01T07:15:20;6.90;;;2.28;;
70800;SDS011;59616;52.170;5.386;2023-04-01T07:17:52;8.35;;;2.92;;
70800;SDS011;59616;52.170;5.386;2023-04-01T07:22:48;7.13;;;2.30;;
70800;SDS011;59616;52.170;5.386;2023-04-01T07:25:38;10.98;;;3.13;;
70800;SDS011;59616;52.170;5.386;2023-04-01T07:28:38;8.07;;;2.60;;
70800;SDS011;59616;52.170;5.386;2023-04-01T07:34:35;9.40;;;3.08;;
70800;SDS011;59616;52.170;5.386;2023-04-01T07:37:06;10.05;;;3.08;;
70800;SDS011;59616;52.170;5.386;2023-04-01T07:45:05;7.95;;;2.67;;
70800;SDS011;59616;52.170;5.386;2023-04-01T07:58:05;9.65;;;3.40;;
70800;SDS011;59616;52.170;5.386;2023-04-01T08:00:51;12.20;;;3.50;;
70800;SDS011;59616;52.170;5.386;2023-04-01T08:06:49;12.00;;;3.58;;
70800;SDS011;59616;52.170;5.386;2023-04-01T08:09:28;14.07;;;4.03;;
70800;SDS011;59616;52.170;5.386;2023-04-01T08:12:25;12.55;;;3.35;;
70800;SDS011;59616;52.170;5.386;2023-04-01T08:15:16;11.57;;;3.70;;
70800;SDS011;59616;52.170;5.386;2023-04-01T08:20:59;11.52;;;3.90;;
70800;SDS011;59616;52.170;5.386;2023-04-01T08:23:33;12.70;;;3.45;;
70800;SDS011;59616;52.170;5.386;2023-04-01T08:26:11;13.18;;;4.50;;
70800;SDS011;59616;52.170;5.386;2023-04-01T08:28:44;13.65;;;4.15;;
70800;SDS011;59616;52.170;5.386;2023-04-01T08:33:44;12.55;;;4.10;;
70800;SDS011;59616;52.170;5.386;2023-04-01T08:36:15;13.30;;;4.45;;
70800;SDS011;59616;52.170;5.386;2023-04-01T08:38:49;13.02;;;4.45;;
70800;SDS011;59616;52.170;5.386;2023-04-01T08:59:06;12.38;;;3.80;;
70800;SDS011;59616;52.170;5.386;2023-04-01T09:22:15;10.00;;;3.40;;
70800;SDS011;59616;52.170;5.386;2023-04-01T09:27:28;7.57;;;2.42;;
70800;SDS011;59616;52.170;5.386;2023-04-01T09:38:22;10.45;;;3.72;;
70800;SDS011;59616;52.170;5.386;2023-04-01T09:54:07;14.05;;;4.75;;
70800;SDS011;59616;52.170;5.386;2023-04-01T09:56:52;14.32;;;4.72;;
70800;SDS011;59616;52.170;5.386;2023-04-01T10:10:46;11.35;;;4.80;;
70800;SDS011;59616;52.170;5.386;2023-04-01T10:21:54;13.07;;;4.63;;
70800;SDS011;59616;52.170;5.386;2023-04-01T10:41:27;11.73;;;4.85;;
70800;SDS011;59616;52.170;5.386;2023-04-01T10:47:30;11.00;;;4.00;;
70800;SDS011;59616;52.170;5.386;2023-04-01T11:07:48;6.65;;;2.20;;
70800;SDS011;59616;52.170;5.386;2023-04-01T11:28:55;6.28;;;1.70;;
70800;SDS011;59616;52.170;5.386;2023-04-01T11:36:37;5.97;;;2.00;;
70800;SDS011;59616;52.170;5.386;2023-04-01T11:45:50;5.85;;;2.00;;
70800;SDS011;59616;52.170;5.386;2023-04-01T11:48:25;7.82;;;2.15;;
70800;SDS011;59616;52.170;5.386;2023-04-01T11:53:32;8.20;;;2.42;;
70800;SDS011;59616;52.170;5.386;2023-04-01T11:58:52;6.93;;;2.25;;
70800;SDS011;59616;52.170;5.386;2023-04-01T12:03:55;6.55;;;2.22;;
70800;SDS011;59616;52.170;5.386;2023-04-01T12:11:57;8.02;;;3.00;;
70800;SDS011;59616;52.170;5.386;2023-04-01T12:14:30;9.52;;;3.35;;
70800;SDS011;59616;52.170;5.386;2023-04-01T12:17:10;9.52;;;3.38;;
70800;SDS011;59616;52.170;5.386;2023-04-01T12:19:48;10.95;;;3.85;;
70800;SDS011;59616;52.170;5.386;2023-04-01T12:22:23;9.85;;;3.78;;
70800;SDS011;59616;52.170;5.386;2023-04-01T12:24:55;11.15;;;3.95;;
70800;SDS011;59616;52.170;5.386;2023-04-01T12:27:45;12.73;;;4.78;;
70800;SDS011;59616;52.170;5.386;2023-04-01T12:30:23;12.75;;;4.68;;
70800;SDS011;59616;52.170;5.386;2023-04-01T12:51:23;16.92;;;6.45;;
70800;SDS011;59616;52.170;5.386;2023-04-01T12:59:01;18.55;;;5.43;;
70800;SDS011;59616;52.170;5.386;2023-04-01T13:17:22;12.48;;;4.57;;
70800;SDS011;59616;52.170;5.386;2023-04-01T13:19:58;11.20;;;3.80;;
70800;SDS011;59616;52.170;5.386;2023-04-01T13:25:00;11.43;;;4.00;;
70800;SDS011;59616;52.170;5.386;2023-04-01T13:27:43;12.98;;;4.25;;
70800;SDS011;59616;52.170;5.386;2023-04-01T13:30:19;12.45;;;4.13;;
70800;SDS011;59616;52.170;5.386;2023-04-01T13:35:23;10.82;;;3.78;;
70800;SDS011;59616;52.170;5.386;2023-04-01T13:41:10;10.55;;;3.55;;
70800;SDS011;59616;52.170;5.386;2023-04-01T13:43:50;7.53;;;2.75;;
70800;SDS011;59616;52.170;5.386;2023-04-01T13:57:23;8.70;;;3.28;;
70800;SDS011;59616;52.170;5.386;2023-04-01T14:02:46;10.45;;;3.42;;
70800;SDS011;59616;52.170;5.386;2023-04-01T14:10:34;11.18;;;3.75;;
70800;SDS011;59616;52.170;5.386;2023-04-01T14:13:39;9.50;;;3.47;;
70800;SDS011;59616;52.170;5.386;2023-04-01T14:18:29;10.68;;;3.90;;
70800;SDS011;59616;52.170;5.386;2023-04-01T14:31:27;10.23;;;3.55;;
70800;SDS011;59616;52.170;5.386;2023-04-01T14:36:47;8.60;;;3.33;;
70800;SDS011;59616;52.170;5.386;2023-04-01T14:39:29;8.88;;;3.30;;
70800;SDS011;59616;52.170;5.386;2023-04-01T14:45:08;11.20;;;3.47;;
70800;SDS011;59616;52.170;5.386;2023-04-01T14:50:24;9.10;;;3.45;;
70800;SDS011;59616;52.170;5.386;2023-04-01T14:52:57;9.30;;;3.38;;
70800;SDS011;59616;52.170;5.386;2023-04-01T14:58:16;9.05;;;3.53;;
70800;SDS011;59616;52.170;5.386;2023-04-01T15:06:00;8.38;;;3.17;;
70800;SDS011;59616;52.170;5.386;2023-04-01T15:11:33;8.63;;;2.83;;
70800;SDS011;59616;52.170;5.386;2023-04-01T15:14:08;8.38;;;3.22;;
70800;SDS011;59616;52.170;5.386;2023-04-01T15:19:42;9.02;;;3.25;;
70800;SDS011;59616;52.170;5.386;2023-04-01T15:22:24;10.70;;;3.58;;
70800;SDS011;59616;52.170;5.386;2023-04-01T15:25:01;7.97;;;2.92;;
70800;SDS011;59616;52.170;5.386;2023-04-01T15:38:10;7.70;;;3.10;;
70800;SDS011;59616;52.170;5.386;2023-04-01T15:41:06;8.38;;;2.65;;
70800;SDS011;59616;52.170;5.386;2023-04-01T15:43:41;7.45;;;2.50;;
70800;SDS011;59616;52.170;5.386;2023-04-01T15:46:52;6.47;;;2.58;;
70800;SDS011;59616;52.170;5.386;2023-04-01T16:00:09;8.20;;;2.63;;
70800;SDS011;59616;52.170;5.386;2023-04-01T16:02:44;7.22;;;2.28;;
70800;SDS011;59616;52.170;5.386;2023-04-01T16:07:42;6.25;;;2.30;;
70800;SDS011;59616;52.170;5.386;2023-04-01T16:25:52;9.15;;;3.40;;
70800;SDS011;59616;52.170;5.386;2023-04-01T16:28:24;8.60;;;2.92;;
70800;SDS011;59616;52.170;5.386;2023-04-01T16:33:47;12.55;;;3.88;;
70800;SDS011;59616;52.170;5.386;2023-04-01T16:36:29;11.15;;;3.80;;
70800;SDS011;59616;52.170;5.386;2023-04-01T16:47:30;8.57;;;3.40;;
70800;SDS011;59616;52.170;5.386;2023-04-01T16:52:48;8.10;;;3.20;;
70800;SDS011;59616;52.170;5.386;2023-04-01T16:55:19;10.20;;;3.47;;
70800;SDS011;59616;52.170;5.386;2023-04-01T17:02:49;10.73;;;3.75;;
70800;SDS011;59616;52.170;5.386;2023-04-01T17:05:19;8.38;;;3.35;;
70800;SDS011;59616;52.170;5.386;2023-04-01T17:08:04;9.50;;;3.63;;
70800;SDS011;59616;52.170;5.386;2023-04-01T17:18:13;8.63;;;3.42;;
70800;SDS011;59616;52.170;5.386;2023-04-01T17:20:48;9.23;;;3.10;;
70800;SDS011;59616;52.170;5.386;2023-04-01T17:28:57;8.48;;;3.22;;
70800;SDS011;59616;52.170;5.386;2023-04-01T17:39:09;7.30;;;2.60;;
70800;SDS011;59616;52.170;5.386;2023-04-01T17:47:46;8.43;;;3.17;;
70800;SDS011;59616;52.170;5.386;2023-04-01T17:51:20;9.57;;;3.30;;
70800;SDS011;59616;52.170;5.386;2023-04-01T17:58:31;6.82;;;3.10;;
70800;SDS011;59616;52.170;5.386;2023-04-01T18:01:07;8.45;;;3.22;;
70800;SDS011;59616;52.170;5.386;2023-04-01T18:19:48;8.70;;;3.10;;
70800;SDS011;59616;52.170;5.386;2023-04-01T18:22:20;10.57;;;3.78;;
70800;SDS011;59616;52.170;5.386;2023-04-01T18:24:56;7.80;;;3.28;;
70800;SDS011;59616;52.170;5.386;2023-04-01T18:27:33;13.02;;;5.07;;
70800;SDS011;59616;52.170;5.386;2023-04-01T18:30:07;10.70;;;4.28;;
70800;SDS011;59616;52.170;5.386;2023-04-01T18:38:16;8.10;;;3.75;;
70800;SDS011;59616;52.170;5.386;2023-04-01T18:41:04;8.73;;;3.67;;
70800;SDS011;59616;52.170;5.386;2023-04-01T18:46:05;9.57;;;4.20;;
70800;SDS011;59616;52.170;5.386;2023-04-01T18:48:49;9.90;;;4.22;;
70800;SDS011;59616;52.170;5.386;2023-04-01T18:54:31;8.30;;;3.58;;
70800;SDS011;59616;52.170;5.386;2023-04-01T18:57:15;10.38;;;3.67;;
70800;SDS011;59616;52.170;5.386;2023-04-01T18:59:45;8.45;;;3.40;;
70800;SDS011;59616;52.170;5.386;2023-04-01T19:04:42;8.80;;;3.67;;
70800;SDS011;59616;52.170;5.386;2023-04-01T19:07:30;7.78;;;3.53;;
70800;SDS011;59616;52.170;5.386;2023-04-01T19:10:01;8.10;;;3.38;;
70800;SDS011;59616;52.170;5.386;2023-04-01T19:12:54;7.80;;;3.35;;
70800;SDS011;59616;52.170;5.386;2023-04-01T19:20:45;7.32;;;3.17;;
70800;SDS011;59616;52.170;5.386;2023-04-01T19:30:58;10.77;;;3.90;;
70800;SDS011;59616;52.170;5.386;2023-04-01T19:33:35;10.20;;;4.22;;
70800;SDS011;59616;52.170;5.386;2023-04-01T19:36:16;9.65;;;4.45;;
70800;SDS011;59616;52.170;5.386;2023-04-01T19:46:18;10.10;;;4.53;;
70800;SDS011;59616;52.170;5.386;2023-04-01T19:51:31;10.00;;;4.25;;
70800;SDS011;59616;52.170;5.386;2023-04-01T19:56:35;10.10;;;4.88;;
70800;SDS011;59616;52.170;5.386;2023-04-01T20:04:48;10.68;;;4.65;;
70800;SDS011;59616;52.170;5.386;2023-04-01T20:10:09;12.15;;;4.60;;
70800;SDS011;59616;52.170;5.386;2023-04-01T20:17:56;11.82;;;5.25;;
70800;SDS011;59616;52.170;5.386;2023-04-01T20:20:25;11.88;;;5.03;;
70800;SDS011;59616;52.170;5.386;2023-04-01T20:25:30;13.05;;;5.20;;
70800;SDS011;59616;52.170;5.386;2023-04-01T20:27:59;14.30;;;5.15;;
70800;SDS011;59616;52.170;5.386;2023-04-01T20:41:38;12.73;;;5.05;;
70800;SDS011;59616;52.170;5.386;2023-04-01T20:49:04;12.25;;;5.00;;
70800;SDS011;59616;52.170;5.386;2023-04-01T20:51:38;10.18;;;4.40;;
70800;SDS011;59616;52.170;5.386;2023-04-01T20:54:14;12.23;;;5.05;;
70800;SDS011;59616;52.170;5.386;2023-04-01T20:56:50;10.40;;;4.43;;
70800;SDS011;59616;52.170;5.386;2023-04-01T21:04:41;11.95;;;4.63;;
70800;SDS011;59616;52.170;5.386;2023-04-01T21:12:19;10.40;;;4.22;;
70800;SDS011;59616;52.170;5.386;2023-04-01T21:15:03;10.48;;;4.63;;
70800;SDS011;59616;52.170;5.386;2023-04-01T21:25:45;11.00;;;4.95;;
70800;SDS011;59616;52.170;5.386;2023-04-01T21:28:33;13.00;;;4.60;;
70800;SDS011;59616;52.170;5.386;2023-04-01T21:34:30;11.20;;;4.32;;
70800;SDS011;59616;52.170;5.386;2023-04-01T21:36:39;11.20;;;4.63;;
70800;SDS011;59616;52.170;5.386;2023-04-01T21:41:51;12.15;;;5.10;;
70800;SDS011;59616;52.170;5.386;2023-04-01T21:44:26;12.65;;;4.75;;
70800;SDS011;59616;52.170;5.386;2023-04-01T22:00:42;11.73;;;4.75;;
70800;SDS011;59616;52.170;5.386;2023-04-01T22:03:30;11.55;;;4.72;;
70800;SDS011;59616;52.170;5.386;2023-04-01T22:08:35;11.00;;;4.78;;
70800;SDS011;59616;52.170;5.386;2023-04-01T22:11:17;14.02;;;5.40;;
70800;SDS011;59616;52.170;5.386;2023-04-01T22:13:56;11.23;;;4.80;;
70800;SDS011;59616;52.170;5.386;2023-04-01T22:16:59;13.60;;;5.05;;
70800;SDS011;59616;52.170;5.386;2023-04-01T22:22:51;11.00;;;4.10;;
70800;SDS011;59616;52.170;5.386;2023-04-01T22:25:19;10.93;;;4.72;;
70800;SDS011;59616;52.170;5.386;2023-04-01T22:27:49;13.20;;;5.85;;
70800;SDS011;59616;52.170;5.386;2023-04-01T22:30:41;12.18;;;4.90;;
70800;SDS011;59616;52.170;5.386;2023-04-01T22:33:28;11.90;;;5.13;;
70800;SDS011;59616;52.170;5.386;2023-04-01T22:36:02;13.25;;;5.70;;
70800;SDS011;59616;52.170;5.386;2023-04-01T22:43:55;10.93;;;4.68;;
70800;SDS011;59616;52.170;5.386;2023-04-01T22:46:30;12.27;;;5.78;;
70800;SDS011;59616;52.170;5.386;2023-04-01T22:54:12;12.98;;;5.30;;
70800;SDS011;59616;52.170;5.386;2023-04-01T22:56:41;14.98;;;5.97;;
70800;SDS011;59616;52.170;5.386;2023-04-01T22:59:14;15.68;;;6.18;;
70800;SDS011;59616;52.170;5.386;2023-04-01T23:01:51;14.95;;;6.32;;
70800;SDS011;59616;52.170;5.386;2023-04-01T23:04:22;15.80;;;6.18;;
70800;SDS011;59616;52.170;5.386;2023-04-01T23:06:52;15.95;;;6.15;;
70800;SDS011;59616;52.170;5.386;2023-04-01T23:09:55;15.68;;;6.10;;
70800;SDS011;59616;52.170;5.386;2023-04-01T23:12:15;13.57;;;6.47;;
70800;SDS011;59616;52.170;5.386;2023-04-01T23:15:16;14.95;;;5.63;;
70800;SDS011;59616;52.170;5.386;2023-04-01T23:23:15;15.25;;;6.22;;
70800;SDS011;59616;52.170;5.386;2023-04-01T23:30:51;14.77;;;6.10;;
70800;SDS011;59616;52.170;5.386;2023-04-01T23:36:32;16.13;;;6.28;;
70800;SDS011;59616;52.170;5.386;2023-04-01T23:38:37;17.27;;;6.38;;
70800;SDS011;59616;52.170;5.386;2023-04-01T23:41:05;18.98;;;7.10;;
70800;SDS011;59616;52.170;5.386;2023-04-01T23:43:42;12.35;;;5.22;;
70800;SDS011;59616;52.170;5.386;2023-04-01T23:46:10;18.00;;;7.60;;
70800;SDS011;59616;52.170;5.386;2023-04-01T23:48:40;17.48;;;7.13;;
70800;SDS011;59616;52.170;5.386;2023-04-01T23:51:17;18.02;;;7.05;;
70800;SDS011;59616;52.170;5.386;2023-04-01T23:53:45;15.52;;;7.05;;
70800;SDS011;59616;52.170;5.386;2023-04-01T23:56:17;16.92;;;7.28;;
70800;SDS011;59616;52.170;5.386;2023-04-01T23:58:45;18.50;;;7.13;;
